sensor_id;sensor_type;location;lat;lon;timestamp;P1;durP1;ratioP1;P2;durP2;ratioP2
13040;SDS011;6587;42.728;23.288;2022-08-18T00:00:07;9.83;;;5.60;;
13040;SDS011;6587;42.728;23.288;2022-08-18T00:02:38;8.23;;;5.53;;
13040;SDS011;6587;42.728;23.288;2022-08-18T00:05:07;8.47;;;5.90;;
13040;SDS011;6587;42.728;23.288;2022-08-18T00:07:35;7.73;;;5.47;;
13040;SDS011;6587;42.728;23.288;2022-08-18T00:10:02;8.07;;;5.73;;
13040;SDS011;6587;42.728;23.288;2022-08-18T00:12:32;7.53;;;5.73;;
13040;SDS011;6587;42.728;23.288;2022-08-18T00:15:01;7.73;;;5.80;;
13040;SDS011;6587;42.728;23.288;2022-08-18T00:17:30;9.00;;;5.87;;
13040;SDS011;6587;42.728;23.288;2022-08-18T00:19:58;15.13;;;6.20;;
13040;SDS011;6587;42.728;23.288;2022-08-18T00:22:25;11.17;;;5.67;;
13040;SDS011;6587;42.728;23.288;2022-08-18T00:24:53;10.60;;;5.93;;
13040;SDS011;6587;42.728;23.288;2022-08-18T00:27:22;9.10;;;5.73;;
13040;SDS011;6587;42.728;23.288;2022-08-18T00:29:52;10.07;;;5.47;;
13040;SDS011;6587;42.728;23.288;2022-08-18T00:32:24;9.30;;;5.33;;
13040;SDS011;6587;42.728;23.288;2022-08-18T00:34:53;9.37;;;5.67;;
13040;SDS011;6587;42.728;23.288;2022-08-18T00:37:22;8.37;;;5.40;;
13040;SDS011;6587;42.728;23.288;2022-08-18T00:39:50;6.57;;;5.67;;
13040;SDS011;6587;42.728;23.288;2022-08-18T00:42:18;8.67;;;5.80;;
13040;SDS011;6587;42.728;23.288;2022-08-18T00:44:47;8.00;;;5.97;;
13040;SDS011;6587;42.728;23.288;2022-08-18T00:47:14;8.20;;;5.50;;
13040;SDS011;6587;42.728;23.288;2022-08-18T00:49:41;9.03;;;5.67;;
13040;SDS011;6587;42.728;23.288;2022-08-18T00:52:11;9.60;;;6.03;;
13040;SDS011;6587;42.728;23.288;2022-08-18T00:54:42;6.63;;;5.87;;
13040;SDS011;6587;42.728;23.288;2022-08-18T00:57:11;7.83;;;6.07;;
13040;SDS011;6587;42.728;23.288;2022-08-18T00:59:44;7.03;;;6.07;;
13040;SDS011;6587;42.728;23.288;2022-08-18T01:02:17;9.43;;;6.07;;
13040;SDS011;6587;42.728;23.288;2022-08-18T01:04:49;9.57;;;6.17;;
13040;SDS011;6587;42.728;23.288;2022-08-18T01:07:22;7.63;;;6.27;;
13040;SDS011;6587;42.728;23.288;2022-08-18T01:09:55;9.27;;;6.43;;
13040;SDS011;6587;42.728;23.288;2022-08-18T01:12:24;9.23;;;6.50;;
13040;SDS011;6587;42.728;23.288;2022-08-18T01:14:51;8.37;;;6.00;;
13040;SDS011;6587;42.728;23.288;2022-08-18T01:17:20;10.20;;;6.50;;
13040;SDS011;6587;42.728;23.288;2022-08-18T01:20:05;9.20;;;6.40;;
13040;SDS011;6587;42.728;23.288;2022-08-18T01:22:56;9.93;;;7.00;;
13040;SDS011;6587;42.728;23.288;2022-08-18T01:25:28;10.17;;;7.30;;
13040;SDS011;6587;42.728;23.288;2022-08-18T01:28:15;7.73;;;6.43;;
13040;SDS011;6587;42.728;23.288;2022-08-18T01:30:44;10.33;;;6.80;;
13040;SDS011;6587;42.728;23.288;2022-08-18T01:33:13;8.57;;;6.63;;
13040;SDS011;6587;42.728;23.288;2022-08-18T01:35:41;10.20;;;6.70;;
13040;SDS011;6587;42.728;23.288;2022-08-18T01:38:13;8.90;;;7.27;;
13040;SDS011;6587;42.728;23.288;2022-08-18T01:40:42;10.33;;;7.30;;
13040;SDS011;6587;42.728;23.288;2022-08-18T01:43:10;8.60;;;7.03;;
13040;SDS011;6587;42.728;23.288;2022-08-18T01:45:37;8.40;;;7.20;;
13040;SDS011;6587;42.728;23.288;2022-08-18T01:48:05;9.50;;;7.77;;
13040;SDS011;6587;42.728;23.288;2022-08-18T01:50:32;8.67;;;6.90;;
13040;SDS011;6587;42.728;23.288;2022-08-18T01:53:00;10.43;;;7.47;;
13040;SDS011;6587;42.728;23.288;2022-08-18T01:55:31;9.10;;;6.90;;
13040;SDS011;6587;42.728;23.288;2022-08-18T01:57:58;8.57;;;7.00;;
13040;SDS011;6587;42.728;23.288;2022-08-18T02:00:26;7.70;;;6.90;;
13040;SDS011;6587;42.728;23.288;2022-08-18T02:02:55;8.00;;;7.07;;
13040;SDS011;6587;42.728;23.288;2022-08-18T02:05:37;10.03;;;7.33;;
13040;SDS011;6587;42.728;23.288;2022-08-18T02:08:06;8.53;;;7.63;;
13040;SDS011;6587;42.728;23.288;2022-08-18T02:10:38;11.63;;;7.60;;
13040;SDS011;6587;42.728;23.288;2022-08-18T02:13:06;9.63;;;7.60;;
13040;SDS011;6587;42.728;23.288;2022-08-18T02:15:33;9.47;;;7.30;;
13040;SDS011;6587;42.728;23.288;2022-08-18T02:18:00;10.50;;;7.37;;
13040;SDS011;6587;42.728;23.288;2022-08-18T02:20:28;10.57;;;7.20;;
13040;SDS011;6587;42.728;23.288;2022-08-18T02:22:55;10.63;;;7.53;;
13040;SDS011;6587;42.728;23.288;2022-08-18T02:25:23;9.27;;;8.00;;
13040;SDS011;6587;42.728;23.288;2022-08-18T02:27:51;10.00;;;7.67;;
13040;SDS011;6587;42.728;23.288;2022-08-18T02:30:19;8.37;;;7.53;;
13040;SDS011;6587;42.728;23.288;2022-08-18T02:32:46;8.97;;;7.23;;
13040;SDS011;6587;42.728;23.288;2022-08-18T02:35:13;9.40;;;7.87;;
13040;SDS011;6587;42.728;23.288;2022-08-18T02:37:41;9.80;;;7.73;;
13040;SDS011;6587;42.728;23.288;2022-08-18T02:40:12;8.83;;;7.10;;
13040;SDS011;6587;42.728;23.288;2022-08-18T02:42:39;8.77;;;7.43;;
13040;SDS011;6587;42.728;23.288;2022-08-18T02:45:08;8.23;;;7.43;;
13040;SDS011;6587;42.728;23.288;2022-08-18T02:47:37;12.60;;;8.07;;
13040;SDS011;6587;42.728;23.288;2022-08-18T02:50:04;11.37;;;8.27;;
13040;SDS011;6587;42.728;23.288;2022-08-18T02:52:33;9.20;;;7.60;;
13040;SDS011;6587;42.728;23.288;2022-08-18T02:55:00;11.33;;;7.43;;
13040;SDS011;6587;42.728;23.288;2022-08-18T02:57:28;10.93;;;7.60;;
13040;SDS011;6587;42.728;23.288;2022-08-18T02:59:55;9.80;;;7.33;;
13040;SDS011;6587;42.728;23.288;2022-08-18T03:02:24;9.80;;;7.43;;
13040;SDS011;6587;42.728;23.288;2022-08-18T03:04:51;10.27;;;8.13;;
13040;SDS011;6587;42.728;23.288;2022-08-18T03:07:17;9.60;;;8.20;;
13040;SDS011;6587;42.728;23.288;2022-08-18T03:09:44;10.43;;;8.00;;
13040;SDS011;6587;42.728;23.288;2022-08-18T03:12:11;10.73;;;7.77;;
13040;SDS011;6587;42.728;23.288;2022-08-18T03:14:38;11.40;;;8.00;;
13040;SDS011;6587;42.728;23.288;2022-08-18T03:17:06;10.60;;;8.87;;
13040;SDS011;6587;42.728;23.288;2022-08-18T03:19:36;10.10;;;8.43;;
13040;SDS011;6587;42.728;23.288;2022-08-18T03:22:03;12.73;;;8.63;;
13040;SDS011;6587;42.728;23.288;2022-08-18T03:24:33;10.30;;;8.30;;
13040;SDS011;6587;42.728;23.288;2022-08-18T03:27:02;12.90;;;9.20;;
13040;SDS011;6587;42.728;23.288;2022-08-18T03:29:31;12.23;;;8.70;;
13040;SDS011;6587;42.728;23.288;2022-08-18T03:31:58;14.20;;;9.07;;
13040;SDS011;6587;42.728;23.288;2022-08-18T03:34:26;13.07;;;8.57;;
13040;SDS011;6587;42.728;23.288;2022-08-18T03:36:54;11.77;;;7.90;;
13040;SDS011;6587;42.728;23.288;2022-08-18T03:39:21;10.47;;;7.80;;
13040;SDS011;6587;42.728;23.288;2022-08-18T03:41:50;13.40;;;9.27;;
13040;SDS011;6587;42.728;23.288;2022-08-18T03:44:19;12.07;;;8.77;;
13040;SDS011;6587;42.728;23.288;2022-08-18T03:46:47;12.37;;;9.13;;
13040;SDS011;6587;42.728;23.288;2022-08-18T03:49:15;14.80;;;9.07;;
13040;SDS011;6587;42.728;23.288;2022-08-18T03:51:45;11.10;;;8.90;;
13040;SDS011;6587;42.728;23.288;2022-08-18T03:54:15;9.90;;;8.60;;
13040;SDS011;6587;42.728;23.288;2022-08-18T03:56:43;12.23;;;9.40;;
13040;SDS011;6587;42.728;23.288;2022-08-18T03:59:14;12.93;;;9.20;;
13040;SDS011;6587;42.728;23.288;2022-08-18T04:01:43;12.43;;;9.70;;
13040;SDS011;6587;42.728;23.288;2022-08-18T04:04:13;14.83;;;9.43;;
13040;SDS011;6587;42.728;23.288;2022-08-18T04:06:42;14.63;;;10.17;;
13040;SDS011;6587;42.728;23.288;2022-08-18T04:09:13;14.17;;;10.47;;
13040;SDS011;6587;42.728;23.288;2022-08-18T04:11:42;15.30;;;10.60;;
13040;SDS011;6587;42.728;23.288;2022-08-18T04:14:12;21.57;;;10.30;;
13040;SDS011;6587;42.728;23.288;2022-08-18T04:16:40;21.53;;;10.77;;
13040;SDS011;6587;42.728;23.288;2022-08-18T04:19:07;14.23;;;10.57;;
13040;SDS011;6587;42.728;23.288;2022-08-18T04:21:38;13.27;;;10.40;;
13040;SDS011;6587;42.728;23.288;2022-08-18T04:24:07;15.47;;;9.97;;
13040;SDS011;6587;42.728;23.288;2022-08-18T04:26:37;12.70;;;9.83;;
13040;SDS011;6587;42.728;23.288;2022-08-18T04:29:07;13.47;;;9.97;;
13040;SDS011;6587;42.728;23.288;2022-08-18T04:31:35;12.40;;;9.87;;
13040;SDS011;6587;42.728;23.288;2022-08-18T04:34:03;13.57;;;9.10;;
13040;SDS011;6587;42.728;23.288;2022-08-18T04:36:30;12.43;;;10.17;;
13040;SDS011;6587;42.728;23.288;2022-08-18T04:38:59;13.57;;;10.07;;
13040;SDS011;6587;42.728;23.288;2022-08-18T04:41:26;13.57;;;9.83;;
13040;SDS011;6587;42.728;23.288;2022-08-18T04:43:55;10.67;;;9.50;;
13040;SDS011;6587;42.728;23.288;2022-08-18T04:46:23;13.97;;;9.90;;
13040;SDS011;6587;42.728;23.288;2022-08-18T04:48:51;15.63;;;9.63;;
13040;SDS011;6587;42.728;23.288;2022-08-18T04:51:24;14.73;;;9.50;;
13040;SDS011;6587;42.728;23.288;2022-08-18T04:53:52;12.60;;;9.80;;
13040;SDS011;6587;42.728;23.288;2022-08-18T04:56:20;9.80;;;8.80;;
13040;SDS011;6587;42.728;23.288;2022-08-18T04:58:51;12.10;;;8.57;;
13040;SDS011;6587;42.728;23.288;2022-08-18T05:01:21;14.10;;;9.33;;
13040;SDS011;6587;42.728;23.288;2022-08-18T05:03:52;17.00;;;10.03;;
13040;SDS011;6587;42.728;23.288;2022-08-18T05:06:21;10.30;;;9.20;;
13040;SDS011;6587;42.728;23.288;2022-08-18T05:08:49;16.27;;;9.17;;
13040;SDS011;6587;42.728;23.288;2022-08-18T05:11:17;10.37;;;8.40;;
13040;SDS011;6587;42.728;23.288;2022-08-18T05:13:45;12.53;;;9.20;;
13040;SDS011;6587;42.728;23.288;2022-08-18T05:16:12;9.00;;;8.10;;
13040;SDS011;6587;42.728;23.288;2022-08-18T05:18:40;11.37;;;8.30;;
13040;SDS011;6587;42.728;23.288;2022-08-18T05:21:07;11.57;;;9.60;;
13040;SDS011;6587;42.728;23.288;2022-08-18T05:23:40;15.03;;;9.40;;
13040;SDS011;6587;42.728;23.288;2022-08-18T05:26:07;9.93;;;8.53;;
13040;SDS011;6587;42.728;23.288;2022-08-18T05:28:35;12.40;;;8.73;;
13040;SDS011;6587;42.728;23.288;2022-08-18T05:31:06;12.60;;;9.30;;
13040;SDS011;6587;42.728;23.288;2022-08-18T05:33:35;12.57;;;8.93;;
13040;SDS011;6587;42.728;23.288;2022-08-18T05:36:08;13.67;;;9.07;;
13040;SDS011;6587;42.728;23.288;2022-08-18T05:38:50;12.97;;;8.80;;
13040;SDS011;6587;42.728;23.288;2022-08-18T05:41:21;11.20;;;8.93;;
13040;SDS011;6587;42.728;23.288;2022-08-18T05:43:52;16.40;;;9.60;;
13040;SDS011;6587;42.728;23.288;2022-08-18T05:46:20;10.17;;;8.43;;
13040;SDS011;6587;42.728;23.288;2022-08-18T05:48:54;13.40;;;9.60;;
13040;SDS011;6587;42.728;23.288;2022-08-18T05:51:24;14.63;;;9.30;;
13040;SDS011;6587;42.728;23.288;2022-08-18T05:53:56;11.77;;;9.03;;
13040;SDS011;6587;42.728;23.288;2022-08-18T05:56:41;14.90;;;8.23;;
13040;SDS011;6587;42.728;23.288;2022-08-18T05:59:13;14.13;;;8.23;;
13040;SDS011;6587;42.728;23.288;2022-08-18T06:01:47;13.43;;;8.40;;
13040;SDS011;6587;42.728;23.288;2022-08-18T06:04:26;12.73;;;8.40;;
13040;SDS011;6587;42.728;23.288;2022-08-18T06:07:01;10.67;;;8.03;;
13040;SDS011;6587;42.728;23.288;2022-08-18T06:09:31;15.80;;;8.80;;
13040;SDS011;6587;42.728;23.288;2022-08-18T06:12:03;10.27;;;7.73;;
13040;SDS011;6587;42.728;23.288;2022-08-18T06:14:36;10.27;;;7.63;;
13040;SDS011;6587;42.728;23.288;2022-08-18T06:17:10;11.23;;;7.73;;
13040;SDS011;6587;42.728;23.288;2022-08-18T06:19:48;13.73;;;8.32;;
13040;SDS011;6587;42.728;23.288;2022-08-18T06:22:24;14.73;;;8.48;;
13040;SDS011;6587;42.728;23.288;2022-08-18T06:25:02;13.63;;;9.00;;
13040;SDS011;6587;42.728;23.288;2022-08-18T06:27:37;14.52;;;8.43;;
13040;SDS011;6587;42.728;23.288;2022-08-18T06:30:12;22.20;;;10.35;;
13040;SDS011;6587;42.728;23.288;2022-08-18T06:32:51;15.67;;;8.67;;
13040;SDS011;6587;42.728;23.288;2022-08-18T06:35:33;15.85;;;8.95;;
13040;SDS011;6587;42.728;23.288;2022-08-18T06:38:06;16.65;;;9.00;;
13040;SDS011;6587;42.728;23.288;2022-08-18T06:41:01;19.02;;;8.70;;
13040;SDS011;6587;42.728;23.288;2022-08-18T06:43:34;23.75;;;8.55;;
13040;SDS011;6587;42.728;23.288;2022-08-18T06:46:04;29.52;;;8.40;;
13040;SDS011;6587;42.728;23.288;2022-08-18T06:48:39;23.95;;;8.90;;
13040;SDS011;6587;42.728;23.288;2022-08-18T06:51:14;15.93;;;8.18;;
13040;SDS011;6587;42.728;23.288;2022-08-18T06:53:50;17.58;;;8.18;;
13040;SDS011;6587;42.728;23.288;2022-08-18T06:56:20;12.80;;;7.53;;
13040;SDS011;6587;42.728;23.288;2022-08-18T06:58:50;14.43;;;7.50;;
13040;SDS011;6587;42.728;23.288;2022-08-18T07:01:19;14.02;;;7.90;;
13040;SDS011;6587;42.728;23.288;2022-08-18T07:03:48;13.70;;;7.78;;
13040;SDS011;6587;42.728;23.288;2022-08-18T07:06:28;17.20;;;7.72;;
13040;SDS011;6587;42.728;23.288;2022-08-18T07:11:58;16.33;;;8.43;;
13040;SDS011;6587;42.728;23.288;2022-08-18T07:14:28;15.25;;;7.63;;
13040;SDS011;6587;42.728;23.288;2022-08-18T07:17:05;10.10;;;7.10;;
13040;SDS011;6587;42.728;23.288;2022-08-18T07:19:34;13.40;;;7.50;;
13040;SDS011;6587;42.728;23.288;2022-08-18T07:22:02;13.00;;;7.40;;
13040;SDS011;6587;42.728;23.288;2022-08-18T07:24:34;9.75;;;7.03;;
13040;SDS011;6587;42.728;23.288;2022-08-18T07:27:06;16.27;;;7.68;;
13040;SDS011;6587;42.728;23.288;2022-08-18T07:29:36;7.68;;;6.32;;
13040;SDS011;6587;42.728;23.288;2022-08-18T07:32:06;10.48;;;6.60;;
13040;SDS011;6587;42.728;23.288;2022-08-18T07:34:39;10.02;;;6.63;;
13040;SDS011;6587;42.728;23.288;2022-08-18T07:37:13;10.63;;;6.40;;
13040;SDS011;6587;42.728;23.288;2022-08-18T07:39:45;7.47;;;6.30;;
13040;SDS011;6587;42.728;23.288;2022-08-18T07:42:21;10.88;;;6.95;;
13040;SDS011;6587;42.728;23.288;2022-08-18T07:44:54;9.55;;;6.18;;
13040;SDS011;6587;42.728;23.288;2022-08-18T07:47:26;8.38;;;6.07;;
13040;SDS011;6587;42.728;23.288;2022-08-18T07:50:00;8.63;;;5.97;;
13040;SDS011;6587;42.728;23.288;2022-08-18T07:52:28;7.03;;;6.00;;
13040;SDS011;6587;42.728;23.288;2022-08-18T07:55:01;8.32;;;6.50;;
13040;SDS011;6587;42.728;23.288;2022-08-18T07:57:37;9.65;;;6.25;;
13040;SDS011;6587;42.728;23.288;2022-08-18T08:00:13;8.90;;;6.43;;
13040;SDS011;6587;42.728;23.288;2022-08-18T08:02:48;6.68;;;5.95;;
13040;SDS011;6587;42.728;23.288;2022-08-18T08:05:31;8.25;;;6.35;;
13040;SDS011;6587;42.728;23.288;2022-08-18T08:08:13;7.28;;;6.28;;
13040;SDS011;6587;42.728;23.288;2022-08-18T08:10:51;7.22;;;6.53;;
13040;SDS011;6587;42.728;23.288;2022-08-18T08:13:30;8.45;;;6.50;;
13040;SDS011;6587;42.728;23.288;2022-08-18T08:16:09;12.95;;;6.82;;
13040;SDS011;6587;42.728;23.288;2022-08-18T08:18:45;7.43;;;6.43;;
13040;SDS011;6587;42.728;23.288;2022-08-18T08:21:23;8.27;;;5.63;;
13040;SDS011;6587;42.728;23.288;2022-08-18T08:23:54;8.35;;;6.05;;
13040;SDS011;6587;42.728;23.288;2022-08-18T08:26:41;9.00;;;6.22;;
13040;SDS011;6587;42.728;23.288;2022-08-18T08:29:18;9.88;;;5.22;;
13040;SDS011;6587;42.728;23.288;2022-08-18T08:31:53;6.90;;;5.50;;
13040;SDS011;6587;42.728;23.288;2022-08-18T08:34:27;7.75;;;5.55;;
13040;SDS011;6587;42.728;23.288;2022-08-18T08:37:00;6.68;;;4.93;;
13040;SDS011;6587;42.728;23.288;2022-08-18T08:39:32;5.75;;;4.97;;
13040;SDS011;6587;42.728;23.288;2022-08-18T08:42:06;11.55;;;5.65;;
13040;SDS011;6587;42.728;23.288;2022-08-18T08:44:37;5.95;;;5.00;;
13040;SDS011;6587;42.728;23.288;2022-08-18T08:47:09;6.15;;;4.53;;
13040;SDS011;6587;42.728;23.288;2022-08-18T08:49:44;6.40;;;4.35;;
13040;SDS011;6587;42.728;23.288;2022-08-18T08:52:16;6.95;;;4.80;;
13040;SDS011;6587;42.728;23.288;2022-08-18T08:54:48;5.95;;;5.13;;
13040;SDS011;6587;42.728;23.288;2022-08-18T08:57:21;7.20;;;4.90;;
13040;SDS011;6587;42.728;23.288;2022-08-18T08:59:52;8.55;;;5.30;;
13040;SDS011;6587;42.728;23.288;2022-08-18T09:05:17;7.18;;;4.78;;
13040;SDS011;6587;42.728;23.288;2022-08-18T09:07:58;6.18;;;4.40;;
13040;SDS011;6587;42.728;23.288;2022-08-18T09:10:49;7.38;;;4.70;;
13040;SDS011;6587;42.728;23.288;2022-08-18T09:13:43;7.18;;;5.18;;
13040;SDS011;6587;42.728;23.288;2022-08-18T09:16:36;5.47;;;4.75;;
13040;SDS011;6587;42.728;23.288;2022-08-18T09:19:15;6.65;;;4.75;;
13040;SDS011;6587;42.728;23.288;2022-08-18T09:21:56;7.03;;;5.20;;
13040;SDS011;6587;42.728;23.288;2022-08-18T09:24:26;8.38;;;4.95;;
13040;SDS011;6587;42.728;23.288;2022-08-18T09:27:10;6.85;;;4.70;;
13040;SDS011;6587;42.728;23.288;2022-08-18T09:29:48;9.57;;;4.93;;
13040;SDS011;6587;42.728;23.288;2022-08-18T09:32:30;5.25;;;4.75;;
13040;SDS011;6587;42.728;23.288;2022-08-18T09:35:26;5.50;;;4.97;;
13040;SDS011;6587;42.728;23.288;2022-08-18T09:38:10;6.25;;;5.18;;
13040;SDS011;6587;42.728;23.288;2022-08-18T09:40:59;5.13;;;4.63;;
13040;SDS011;6587;42.728;23.288;2022-08-18T09:43:55;6.90;;;4.90;;
13040;SDS011;6587;42.728;23.288;2022-08-18T09:49:43;6.20;;;5.20;;
13040;SDS011;6587;42.728;23.288;2022-08-18T09:58:20;7.68;;;4.47;;
13040;SDS011;6587;42.728;23.288;2022-08-18T10:01:38;5.05;;;4.55;;
13040;SDS011;6587;42.728;23.288;2022-08-18T10:04:17;7.38;;;4.53;;
13040;SDS011;6587;42.728;23.288;2022-08-18T10:06:51;5.38;;;4.60;;
13040;SDS011;6587;42.728;23.288;2022-08-18T10:09:24;5.68;;;4.75;;
13040;SDS011;6587;42.728;23.288;2022-08-18T10:18:01;5.82;;;4.00;;
13040;SDS011;6587;42.728;23.288;2022-08-18T10:20:53;4.95;;;4.45;;
13040;SDS011;6587;42.728;23.288;2022-08-18T10:23:40;6.53;;;4.05;;
13040;SDS011;6587;42.728;23.288;2022-08-18T10:29:51;4.38;;;3.97;;
13040;SDS011;6587;42.728;23.288;2022-08-18T10:38:23;5.85;;;3.90;;
13040;SDS011;6587;42.728;23.288;2022-08-18T10:41:07;5.28;;;4.00;;
13040;SDS011;6587;42.728;23.288;2022-08-18T10:43:39;5.65;;;3.60;;
13040;SDS011;6587;42.728;23.288;2022-08-18T10:46:16;5.43;;;4.05;;
13040;SDS011;6587;42.728;23.288;2022-08-18T10:48:56;4.40;;;4.00;;
13040;SDS011;6587;42.728;23.288;2022-08-18T10:51:26;4.72;;;4.00;;
13040;SDS011;6587;42.728;23.288;2022-08-18T10:54:16;4.55;;;3.75;;
13040;SDS011;6587;42.728;23.288;2022-08-18T10:56:54;4.45;;;4.05;;
13040;SDS011;6587;42.728;23.288;2022-08-18T10:59:32;5.63;;;3.53;;
13040;SDS011;6587;42.728;23.288;2022-08-18T11:02:09;5.65;;;3.95;;
13040;SDS011;6587;42.728;23.288;2022-08-18T11:04:44;3.75;;;3.33;;
13040;SDS011;6587;42.728;23.288;2022-08-18T11:07:14;6.60;;;4.25;;
13040;SDS011;6587;42.728;23.288;2022-08-18T11:09:47;5.15;;;4.13;;
13040;SDS011;6587;42.728;23.288;2022-08-18T11:12:33;7.13;;;4.28;;
13040;SDS011;6587;42.728;23.288;2022-08-18T11:15:18;4.32;;;3.92;;
13040;SDS011;6587;42.728;23.288;2022-08-18T11:17:51;4.53;;;3.80;;
13040;SDS011;6587;42.728;23.288;2022-08-18T11:20:29;4.80;;;3.50;;
13040;SDS011;6587;42.728;23.288;2022-08-18T11:22:57;7.07;;;3.85;;
13040;SDS011;6587;42.728;23.288;2022-08-18T11:25:28;3.63;;;3.33;;
13040;SDS011;6587;42.728;23.288;2022-08-18T11:27:56;4.55;;;3.80;;
13040;SDS011;6587;42.728;23.288;2022-08-18T11:30:26;5.38;;;3.70;;
13040;SDS011;6587;42.728;23.288;2022-08-18T11:32:55;4.40;;;3.85;;
13040;SDS011;6587;42.728;23.288;2022-08-18T11:35:24;4.30;;;3.90;;
13040;SDS011;6587;42.728;23.288;2022-08-18T11:37:55;3.83;;;3.53;;
13040;SDS011;6587;42.728;23.288;2022-08-18T11:40:36;4.47;;;3.67;;
13040;SDS011;6587;42.728;23.288;2022-08-18T11:43:10;4.25;;;3.65;;
13040;SDS011;6587;42.728;23.288;2022-08-18T11:45:49;5.13;;;4.10;;
13040;SDS011;6587;42.728;23.288;2022-08-18T11:48:20;4.70;;;3.85;;
13040;SDS011;6587;42.728;23.288;2022-08-18T11:51:00;4.60;;;4.10;;
13040;SDS011;6587;42.728;23.288;2022-08-18T11:53:36;4.05;;;3.65;;
13040;SDS011;6587;42.728;23.288;2022-08-18T11:56:16;5.47;;;4.13;;
13040;SDS011;6587;42.728;23.288;2022-08-18T11:58:51;6.50;;;4.07;;
13040;SDS011;6587;42.728;23.288;2022-08-18T12:01:34;4.63;;;4.22;;
13040;SDS011;6587;42.728;23.288;2022-08-18T12:04:09;4.82;;;4.05;;
13040;SDS011;6587;42.728;23.288;2022-08-18T12:06:50;7.07;;;4.10;;
13040;SDS011;6587;42.728;23.288;2022-08-18T12:09:25;4.85;;;4.40;;
13040;SDS011;6587;42.728;23.288;2022-08-18T12:11:59;5.85;;;4.53;;
13040;SDS011;6587;42.728;23.288;2022-08-18T12:14:29;5.03;;;4.43;;
13040;SDS011;6587;42.728;23.288;2022-08-18T12:16:58;6.85;;;4.28;;
13040;SDS011;6587;42.728;23.288;2022-08-18T12:19:26;5.95;;;4.40;;
13040;SDS011;6587;42.728;23.288;2022-08-18T12:21:55;5.28;;;4.78;;
13040;SDS011;6587;42.728;23.288;2022-08-18T12:24:24;5.10;;;4.53;;
13040;SDS011;6587;42.728;23.288;2022-08-18T12:26:53;5.40;;;4.18;;
13040;SDS011;6587;42.728;23.288;2022-08-18T12:29:22;4.78;;;4.38;;
13040;SDS011;6587;42.728;23.288;2022-08-18T12:31:50;4.90;;;4.50;;
13040;SDS011;6587;42.728;23.288;2022-08-18T12:34:20;7.88;;;4.70;;
13040;SDS011;6587;42.728;23.288;2022-08-18T12:36:49;5.15;;;4.32;;
13040;SDS011;6587;42.728;23.288;2022-08-18T12:39:16;5.50;;;4.28;;
13040;SDS011;6587;42.728;23.288;2022-08-18T12:41:44;5.28;;;4.40;;
13040;SDS011;6587;42.728;23.288;2022-08-18T12:44:11;5.43;;;4.72;;
13040;SDS011;6587;42.728;23.288;2022-08-18T12:46:41;5.70;;;4.20;;
13040;SDS011;6587;42.728;23.288;2022-08-18T12:49:09;4.57;;;4.18;;
13040;SDS011;6587;42.728;23.288;2022-08-18T12:51:41;6.18;;;4.40;;
13040;SDS011;6587;42.728;23.288;2022-08-18T12:54:08;5.05;;;4.55;;
13040;SDS011;6587;42.728;23.288;2022-08-18T12:56:35;4.78;;;4.38;;
13040;SDS011;6587;42.728;23.288;2022-08-18T12:59:03;5.05;;;4.22;;
13040;SDS011;6587;42.728;23.288;2022-08-18T13:01:32;4.65;;;4.15;;
13040;SDS011;6587;42.728;23.288;2022-08-18T13:04:01;4.65;;;4.05;;
13040;SDS011;6587;42.728;23.288;2022-08-18T13:06:29;4.55;;;4.25;;
13040;SDS011;6587;42.728;23.288;2022-08-18T13:08:58;6.80;;;4.18;;
13040;SDS011;6587;42.728;23.288;2022-08-18T13:11:25;4.65;;;4.07;;
13040;SDS011;6587;42.728;23.288;2022-08-18T13:13:52;4.90;;;4.15;;
13040;SDS011;6587;42.728;23.288;2022-08-18T13:16:20;4.70;;;4.30;;
13040;SDS011;6587;42.728;23.288;2022-08-18T13:18:48;5.80;;;4.05;;
13040;SDS011;6587;42.728;23.288;2022-08-18T13:21:16;5.78;;;4.35;;
13040;SDS011;6587;42.728;23.288;2022-08-18T13:23:43;5.38;;;4.43;;
13040;SDS011;6587;42.728;23.288;2022-08-18T13:26:11;6.30;;;4.32;;
13040;SDS011;6587;42.728;23.288;2022-08-18T13:28:42;5.50;;;4.10;;
13040;SDS011;6587;42.728;23.288;2022-08-18T13:31:09;5.20;;;4.57;;
13040;SDS011;6587;42.728;23.288;2022-08-18T13:33:36;5.15;;;4.35;;
13040;SDS011;6587;42.728;23.288;2022-08-18T13:36:04;5.25;;;4.47;;
13040;SDS011;6587;42.728;23.288;2022-08-18T13:38:33;4.50;;;4.10;;
13040;SDS011;6587;42.728;23.288;2022-08-18T13:41:00;5.88;;;4.40;;
13040;SDS011;6587;42.728;23.288;2022-08-18T13:43:32;4.72;;;4.22;;
13040;SDS011;6587;42.728;23.288;2022-08-18T13:46:02;7.72;;;4.40;;
13040;SDS011;6587;42.728;23.288;2022-08-18T13:48:30;5.00;;;4.50;;
13040;SDS011;6587;42.728;23.288;2022-08-18T13:50:57;4.53;;;4.13;;
13040;SDS011;6587;42.728;23.288;2022-08-18T13:53:25;5.70;;;4.18;;
13040;SDS011;6587;42.728;23.288;2022-08-18T13:55:55;5.15;;;4.30;;
13040;SDS011;6587;42.728;23.288;2022-08-18T13:58:23;6.80;;;4.38;;
13040;SDS011;6587;42.728;23.288;2022-08-18T14:00:50;4.40;;;4.10;;
13040;SDS011;6587;42.728;23.288;2022-08-18T14:03:22;7.72;;;4.45;;
13040;SDS011;6587;42.728;23.288;2022-08-18T14:05:49;4.43;;;4.07;;
13040;SDS011;6587;42.728;23.288;2022-08-18T14:08:17;4.72;;;4.28;;
13040;SDS011;6587;42.728;23.288;2022-08-18T14:10:44;6.82;;;4.50;;
13040;SDS011;6587;42.728;23.288;2022-08-18T14:13:13;6.13;;;4.55;;
13040;SDS011;6587;42.728;23.288;2022-08-18T14:15:42;7.47;;;4.55;;
13040;SDS011;6587;42.728;23.288;2022-08-18T14:18:09;5.82;;;4.40;;
13040;SDS011;6587;42.728;23.288;2022-08-18T14:20:36;5.78;;;4.28;;
13040;SDS011;6587;42.728;23.288;2022-08-18T14:23:20;4.60;;;4.30;;
13040;SDS011;6587;42.728;23.288;2022-08-18T14:26:04;4.75;;;4.35;;
13040;SDS011;6587;42.728;23.288;2022-08-18T14:28:50;4.90;;;4.47;;
13040;SDS011;6587;42.728;23.288;2022-08-18T14:31:17;4.90;;;4.40;;
13040;SDS011;6587;42.728;23.288;2022-08-18T14:33:44;7.63;;;4.55;;
13040;SDS011;6587;42.728;23.288;2022-08-18T14:36:11;5.50;;;4.82;;
13040;SDS011;6587;42.728;23.288;2022-08-18T14:38:39;6.30;;;5.60;;
13040;SDS011;6587;42.728;23.288;2022-08-18T14:41:07;4.70;;;4.30;;
13040;SDS011;6587;42.728;23.288;2022-08-18T14:43:38;8.18;;;4.65;;
13040;SDS011;6587;42.728;23.288;2022-08-18T14:46:07;5.32;;;4.38;;
13040;SDS011;6587;42.728;23.288;2022-08-18T14:48:34;4.93;;;4.50;;
13040;SDS011;6587;42.728;23.288;2022-08-18T14:51:01;4.80;;;4.40;;
13040;SDS011;6587;42.728;23.288;2022-08-18T14:53:29;6.13;;;4.97;;
13040;SDS011;6587;42.728;23.288;2022-08-18T14:55:58;5.13;;;4.30;;
13040;SDS011;6587;42.728;23.288;2022-08-18T14:58:28;6.13;;;4.80;;
13040;SDS011;6587;42.728;23.288;2022-08-18T15:00:58;5.75;;;4.68;;
13040;SDS011;6587;42.728;23.288;2022-08-18T15:03:29;4.97;;;4.43;;
13040;SDS011;6587;42.728;23.288;2022-08-18T15:05:56;5.72;;;4.80;;
13040;SDS011;6587;42.728;23.288;2022-08-18T15:08:24;6.53;;;4.57;;
13040;SDS011;6587;42.728;23.288;2022-08-18T15:10:51;5.57;;;4.93;;
13040;SDS011;6587;42.728;23.288;2022-08-18T15:13:18;5.28;;;4.60;;
13040;SDS011;6587;42.728;23.288;2022-08-18T15:15:45;6.45;;;4.53;;
13040;SDS011;6587;42.728;23.288;2022-08-18T15:18:12;6.13;;;4.65;;
13040;SDS011;6587;42.728;23.288;2022-08-18T15:20:40;6.28;;;4.90;;
13040;SDS011;6587;42.728;23.288;2022-08-18T15:23:20;7.15;;;4.90;;
13040;SDS011;6587;42.728;23.288;2022-08-18T15:26:05;6.50;;;4.65;;
13040;SDS011;6587;42.728;23.288;2022-08-18T15:28:32;5.43;;;4.93;;
13040;SDS011;6587;42.728;23.288;2022-08-18T15:30:59;4.97;;;4.57;;
13040;SDS011;6587;42.728;23.288;2022-08-18T15:33:25;6.20;;;4.90;;
13040;SDS011;6587;42.728;23.288;2022-08-18T15:35:54;6.80;;;4.60;;
13040;SDS011;6587;42.728;23.288;2022-08-18T15:38:21;11.02;;;5.22;;
13040;SDS011;6587;42.728;23.288;2022-08-18T15:40:51;6.22;;;4.63;;